Terminal Aerodrome Forecast
Issued by NWS

Home | Current Version | Previous Version | Text Only | Print | Product List | Glossary On
Versions: 1 2 3 4 5 6 7 8 9 10 11 12 13 14 15 16 17 18
000
FTUS43 KOAX 161200 AAA
TAFSNY
TAF AMD
KSNY 161259Z 1613/1712 18008KT P6SM SKC
      TEMPO 1613/1614 3SM BR
     FM161500 35012KT P6SM SKC
     FM170000 12006KT P6SM SKC=

USA.gov is the U.S. government's official web portal to all federal, state and local government web resources and services.